sensor_id;sensor_type;location;lat;lon;timestamp;pressure;altitude;pressure_sealevel;temperature;humidity
6198;BME280;3132;42.622;23.328;2023-02-13T00:00:17;94426.22;;;-2.00;92.23
6198;BME280;3132;42.622;23.328;2023-02-13T00:02:43;94399.31;;;-2.36;93.00
6198;BME280;3132;42.622;23.328;2023-02-13T00:05:08;94422.34;;;-2.28;93.41
6198;BME280;3132;42.622;23.328;2023-02-13T00:07:33;94399.63;;;-2.39;93.36
6198;BME280;3132;42.622;23.328;2023-02-13T00:09:59;94415.63;;;-2.29;92.72
6198;BME280;3132;42.622;23.328;2023-02-13T00:12:24;94418.66;;;-2.33;93.52
6198;BME280;3132;42.622;23.328;2023-02-13T00:14:49;94412.88;;;-2.43;93.25
6198;BME280;3132;42.622;23.328;2023-02-13T00:17:15;94421.84;;;-2.39;94.09
6198;BME280;3132;42.622;23.328;2023-02-13T00:19:40;94419.41;;;-2.49;93.65
6198;BME280;3132;42.622;23.328;2023-02-13T00:22:06;94358.59;;;-2.87;93.60
6198;BME280;3132;42.622;23.328;2023-02-13T00:24:31;94429.84;;;-2.34;94.14
6198;BME280;3132;42.622;23.328;2023-02-13T00:26:57;94432.41;;;-2.34;93.13
6198;BME280;3132;42.622;23.328;2023-02-13T00:29:22;94432.03;;;-2.47;93.28
6198;BME280;3132;42.622;23.328;2023-02-13T00:31:47;94432.88;;;-2.39;93.54
6198;BME280;3132;42.622;23.328;2023-02-13T00:34:13;94401.00;;;-2.60;93.71
6198;BME280;3132;42.622;23.328;2023-02-13T00:36:38;94440.19;;;-2.44;93.95
6198;BME280;3132;42.622;23.328;2023-02-13T00:39:04;94437.00;;;-2.54;93.75
6198;BME280;3132;42.622;23.328;2023-02-13T00:41:29;94433.66;;;-2.46;94.00
6198;BME280;3132;42.622;23.328;2023-02-13T00:43:55;94433.50;;;-2.29;92.96
6198;BME280;3132;42.622;23.328;2023-02-13T00:46:20;94418.81;;;-2.35;93.04
6198;BME280;3132;42.622;23.328;2023-02-13T00:48:46;94441.72;;;-2.17;93.58
6198;BME280;3132;42.622;23.328;2023-02-13T00:51:11;94446.31;;;-2.21;93.19
6198;BME280;3132;42.622;23.328;2023-02-13T00:53:37;94438.66;;;-2.21;93.10
6198;BME280;3132;42.622;23.328;2023-02-13T00:56:04;94439.63;;;-2.22;94.05
6198;BME280;3132;42.622;23.328;2023-02-13T00:58:30;94430.81;;;-2.19;93.42
6198;BME280;3132;42.622;23.328;2023-02-13T01:00:55;94431.81;;;-2.12;93.30
6198;BME280;3132;42.622;23.328;2023-02-13T01:03:21;94451.91;;;-2.25;92.95
6198;BME280;3132;42.622;23.328;2023-02-13T01:05:47;94435.91;;;-2.43;93.56
6198;BME280;3132;42.622;23.328;2023-02-13T01:08:14;94425.00;;;-2.53;93.96
6198;BME280;3132;42.622;23.328;2023-02-13T01:10:40;94419.06;;;-2.62;94.11
6198;BME280;3132;42.622;23.328;2023-02-13T01:13:06;94445.75;;;-2.56;94.31
6198;BME280;3132;42.622;23.328;2023-02-13T01:15:33;94432.47;;;-2.60;94.43
6198;BME280;3132;42.622;23.328;2023-02-13T01:17:58;94414.72;;;-2.69;94.72
6198;BME280;3132;42.622;23.328;2023-02-13T01:20:26;94436.81;;;-2.60;95.60
6198;BME280;3132;42.622;23.328;2023-02-13T01:22:51;94443.53;;;-2.51;95.07
6198;BME280;3132;42.622;23.328;2023-02-13T01:25:17;94431.66;;;-2.68;95.10
6198;BME280;3132;42.622;23.328;2023-02-13T01:27:42;94449.13;;;-2.56;94.46
6198;BME280;3132;42.622;23.328;2023-02-13T01:30:10;94444.28;;;-2.67;94.27
6198;BME280;3132;42.622;23.328;2023-02-13T01:32:41;94434.41;;;-2.62;94.79
6198;BME280;3132;42.622;23.328;2023-02-13T01:35:08;94449.44;;;-2.59;94.98
6198;BME280;3132;42.622;23.328;2023-02-13T01:37:34;94455.19;;;-2.49;94.58
6198;BME280;3132;42.622;23.328;2023-02-13T01:40:01;94442.53;;;-2.66;94.79
6198;BME280;3132;42.622;23.328;2023-02-13T01:42:29;94459.34;;;-2.56;95.15
6198;BME280;3132;42.622;23.328;2023-02-13T01:44:57;94453.91;;;-2.53;94.41
6198;BME280;3132;42.622;23.328;2023-02-13T01:47:44;94438.47;;;-2.27;93.81
6198;BME280;3132;42.622;23.328;2023-02-13T01:50:33;94434.66;;;-2.31;94.03
6198;BME280;3132;42.622;23.328;2023-02-13T01:53:09;94452.59;;;-1.99;93.87
6198;BME280;3132;42.622;23.328;2023-02-13T01:55:42;94431.81;;;-2.12;93.60
6198;BME280;3132;42.622;23.328;2023-02-13T01:58:14;94454.06;;;-1.89;94.01
6198;BME280;3132;42.622;23.328;2023-02-13T02:00:44;94472.00;;;-1.81;94.06
6198;BME280;3132;42.622;23.328;2023-02-13T02:03:24;94438.72;;;-1.89;94.28
6198;BME280;3132;42.622;23.328;2023-02-13T02:05:54;94436.00;;;-1.71;96.09
6198;BME280;3132;42.622;23.328;2023-02-13T02:08:21;94471.38;;;-1.42;95.85
6198;BME280;3132;42.622;23.328;2023-02-13T02:10:47;94464.97;;;-1.46;95.73
6198;BME280;3132;42.622;23.328;2023-02-13T02:13:17;94464.94;;;-1.30;95.19
6198;BME280;3132;42.622;23.328;2023-02-13T02:15:44;94427.66;;;-1.57;97.43
6198;BME280;3132;42.622;23.328;2023-02-13T02:18:15;94460.47;;;-1.04;96.48
6198;BME280;3132;42.622;23.328;2023-02-13T02:23:42;94454.78;;;-0.92;94.99
6198;BME280;3132;42.622;23.328;2023-02-13T02:31:54;94468.41;;;-0.91;96.41
6198;BME280;3132;42.622;23.328;2023-02-13T02:42:39;94456.59;;;-1.16;96.76
6198;BME280;3132;42.622;23.328;2023-02-13T02:45:15;94464.94;;;-1.30;97.03
6198;BME280;3132;42.622;23.328;2023-02-13T02:51:47;94469.41;;;-1.16;96.61
6198;BME280;3132;42.622;23.328;2023-02-13T02:56:57;94499.50;;;-1.02;95.87
6198;BME280;3132;42.622;23.328;2023-02-13T02:59:25;94483.22;;;-1.25;96.29
6198;BME280;3132;42.622;23.328;2023-02-13T03:02:12;94478.06;;;-1.17;94.91
6198;BME280;3132;42.622;23.328;2023-02-13T03:04:59;94479.34;;;-1.21;94.70
6198;BME280;3132;42.622;23.328;2023-02-13T03:07:44;94462.09;;;-1.35;95.32
6198;BME280;3132;42.622;23.328;2023-02-13T03:10:12;94491.22;;;-1.04;95.04
6198;BME280;3132;42.622;23.328;2023-02-13T03:13:09;94485.91;;;-1.11;94.22
6198;BME280;3132;42.622;23.328;2023-02-13T03:15:57;94487.69;;;-1.11;94.85
6198;BME280;3132;42.622;23.328;2023-02-13T03:18:46;94469.41;;;-1.08;96.95
6198;BME280;3132;42.622;23.328;2023-02-13T03:21:52;94485.25;;;-0.97;96.46
6198;BME280;3132;42.622;23.328;2023-02-13T03:36:16;94494.88;;;-1.15;97.10
6198;BME280;3132;42.622;23.328;2023-02-13T03:39:11;94500.16;;;-1.08;96.73
6198;BME280;3132;42.622;23.328;2023-02-13T03:44:36;94501.31;;;-1.11;97.04
6198;BME280;3132;42.622;23.328;2023-02-13T03:47:05;94495.53;;;-1.05;96.24
6198;BME280;3132;42.622;23.328;2023-02-13T03:49:38;94489.75;;;-1.15;95.02
6198;BME280;3132;42.622;23.328;2023-02-13T03:52:31;94489.09;;;-1.09;94.68
6198;BME280;3132;42.622;23.328;2023-02-13T03:55:01;94490.72;;;-1.08;95.20
6198;BME280;3132;42.622;23.328;2023-02-13T03:57:50;94483.19;;;-1.09;95.08
6198;BME280;3132;42.622;23.328;2023-02-13T04:00:39;94458.41;;;-1.41;95.60
6198;BME280;3132;42.622;23.328;2023-02-13T04:05:53;94477.94;;;-1.48;96.61
6198;BME280;3132;42.622;23.328;2023-02-13T04:08:20;94480.00;;;-1.59;96.24
6198;BME280;3132;42.622;23.328;2023-02-13T04:10:52;94465.28;;;-1.66;96.33
6198;BME280;3132;42.622;23.328;2023-02-13T04:13:26;94486.88;;;-1.52;95.61
6198;BME280;3132;42.622;23.328;2023-02-13T04:16:02;94476.50;;;-1.75;96.07
6198;BME280;3132;42.622;23.328;2023-02-13T04:18:31;94476.63;;;-1.68;95.06
6198;BME280;3132;42.622;23.328;2023-02-13T04:21:01;94490.25;;;-1.59;94.82
6198;BME280;3132;42.622;23.328;2023-02-13T04:23:27;94475.84;;;-1.52;94.31
6198;BME280;3132;42.622;23.328;2023-02-13T04:25:54;94497.31;;;-1.45;94.47
6198;BME280;3132;42.622;23.328;2023-02-13T04:28:21;94492.81;;;-1.43;94.63
6198;BME280;3132;42.622;23.328;2023-02-13T04:30:46;94473.59;;;-1.55;94.54
6198;BME280;3132;42.622;23.328;2023-02-13T04:33:12;94482.88;;;-1.63;94.51
6198;BME280;3132;42.622;23.328;2023-02-13T04:35:37;94492.63;;;-1.66;95.56
6198;BME280;3132;42.622;23.328;2023-02-13T04:38:04;94469.75;;;-1.76;95.50
6198;BME280;3132;42.622;23.328;2023-02-13T04:40:29;94485.94;;;-1.67;95.23
6198;BME280;3132;42.622;23.328;2023-02-13T04:42:55;94478.41;;;-1.60;94.03
6198;BME280;3132;42.622;23.328;2023-02-13T04:45:20;94487.38;;;-1.65;94.94
6198;BME280;3132;42.622;23.328;2023-02-13T04:47:50;94473.28;;;-1.77;97.79
6198;BME280;3132;42.622;23.328;2023-02-13T04:50:16;94459.50;;;-2.00;96.56
6198;BME280;3132;42.622;23.328;2023-02-13T04:52:42;94484.16;;;-1.83;96.39
6198;BME280;3132;42.622;23.328;2023-02-13T04:55:07;94485.09;;;-1.76;97.33
6198;BME280;3132;42.622;23.328;2023-02-13T04:57:33;94492.16;;;-1.62;96.97
6198;BME280;3132;42.622;23.328;2023-02-13T04:59:58;94492.97;;;-1.61;96.51
6198;BME280;3132;42.622;23.328;2023-02-13T05:02:24;94479.38;;;-1.53;96.32
6198;BME280;3132;42.622;23.328;2023-02-13T05:04:49;94493.13;;;-1.38;95.52
6198;BME280;3132;42.622;23.328;2023-02-13T05:07:14;94496.66;;;-1.47;96.61
6198;BME280;3132;42.622;23.328;2023-02-13T05:09:40;94511.38;;;-1.33;95.30
6198;BME280;3132;42.622;23.328;2023-02-13T05:12:05;94489.47;;;-1.44;95.51
6198;BME280;3132;42.622;23.328;2023-02-13T05:14:31;94517.47;;;-1.18;95.45
6198;BME280;3132;42.622;23.328;2023-02-13T05:16:56;94469.75;;;-1.19;95.30
6198;BME280;3132;42.622;23.328;2023-02-13T05:19:21;94508.00;;;-0.86;94.48
6198;BME280;3132;42.622;23.328;2023-02-13T05:21:47;94487.00;;;-0.97;94.66
6198;BME280;3132;42.622;23.328;2023-02-13T05:24:31;94512.91;;;-0.76;94.56
6198;BME280;3132;42.622;23.328;2023-02-13T05:26:56;94522.22;;;-0.67;94.67
6198;BME280;3132;42.622;23.328;2023-02-13T05:29:21;94511.16;;;-0.84;95.16
6198;BME280;3132;42.622;23.328;2023-02-13T05:31:49;94478.41;;;-1.44;97.47
6198;BME280;3132;42.622;23.328;2023-02-13T05:34:14;94522.88;;;-0.81;96.69
6198;BME280;3132;42.622;23.328;2023-02-13T05:36:40;94514.88;;;-0.86;95.71
6198;BME280;3132;42.622;23.328;2023-02-13T05:39:06;94480.97;;;-1.04;96.09
6198;BME280;3132;42.622;23.328;2023-02-13T05:41:31;94509.75;;;-0.86;95.73
6198;BME280;3132;42.622;23.328;2023-02-13T05:43:57;94513.56;;;-0.82;97.08
6198;BME280;3132;42.622;23.328;2023-02-13T05:46:22;94526.03;;;-0.63;95.69
6198;BME280;3132;42.622;23.328;2023-02-13T05:48:48;94503.31;;;-0.74;94.48
6198;BME280;3132;42.622;23.328;2023-02-13T05:51:13;94505.56;;;-0.79;93.82
6198;BME280;3132;42.622;23.328;2023-02-13T05:53:39;94512.13;;;-0.77;93.57
6198;BME280;3132;42.622;23.328;2023-02-13T05:56:05;94524.63;;;-0.74;94.28
6198;BME280;3132;42.622;23.328;2023-02-13T05:58:31;94533.06;;;-0.57;92.32
6198;BME280;3132;42.622;23.328;2023-02-13T06:00:57;94527.91;;;-0.41;91.15
6198;BME280;3132;42.622;23.328;2023-02-13T06:03:28;94518.47;;;-0.41;90.72
6198;BME280;3132;42.622;23.328;2023-02-13T06:05:54;94528.91;;;-0.58;91.46
6198;BME280;3132;42.622;23.328;2023-02-13T06:08:20;94547.19;;;-0.53;91.85
6198;BME280;3132;42.622;23.328;2023-02-13T06:10:47;94531.31;;;-0.57;93.04
6198;BME280;3132;42.622;23.328;2023-02-13T06:13:13;94549.34;;;-0.34;91.96
6198;BME280;3132;42.622;23.328;2023-02-13T06:15:39;94545.56;;;-0.54;93.42
6198;BME280;3132;42.622;23.328;2023-02-13T06:18:05;94536.44;;;-0.49;94.02
6198;BME280;3132;42.622;23.328;2023-02-13T06:20:30;94536.28;;;-0.47;93.83
6198;BME280;3132;42.622;23.328;2023-02-13T06:22:55;94536.59;;;-0.42;93.77
6198;BME280;3132;42.622;23.328;2023-02-13T06:25:21;94549.34;;;-0.26;92.73
6198;BME280;3132;42.622;23.328;2023-02-13T06:27:47;94538.13;;;-0.25;92.04
6198;BME280;3132;42.622;23.328;2023-02-13T06:30:14;94539.56;;;0.08;91.28
6198;BME280;3132;42.622;23.328;2023-02-13T06:32:39;94548.59;;;-0.35;93.33
6198;BME280;3132;42.622;23.328;2023-02-13T06:35:05;94539.06;;;-0.18;92.73
6198;BME280;3132;42.622;23.328;2023-02-13T06:37:32;94566.19;;;0.15;90.93
6198;BME280;3132;42.622;23.328;2023-02-13T06:39:57;94549.25;;;-0.41;93.60
6198;BME280;3132;42.622;23.328;2023-02-13T06:42:23;94559.22;;;-0.07;94.17
6198;BME280;3132;42.622;23.328;2023-02-13T06:44:48;94520.41;;;-0.51;95.37
6198;BME280;3132;42.622;23.328;2023-02-13T06:47:13;94561.81;;;-0.15;94.44
6198;BME280;3132;42.622;23.328;2023-02-13T06:49:39;94535.25;;;-0.30;95.66
6198;BME280;3132;42.622;23.328;2023-02-13T06:52:04;94563.34;;;0.02;94.28
6198;BME280;3132;42.622;23.328;2023-02-13T06:54:30;94551.53;;;-0.07;94.08
6198;BME280;3132;42.622;23.328;2023-02-13T06:56:55;94569.34;;;-0.14;94.94
6198;BME280;3132;42.622;23.328;2023-02-13T06:59:20;94566.25;;;-0.01;94.81
6198;BME280;3132;42.622;23.328;2023-02-13T07:01:46;94571.28;;;-0.16;95.14
6198;BME280;3132;42.622;23.328;2023-02-13T07:04:11;94557.69;;;0.15;93.93
6198;BME280;3132;42.622;23.328;2023-02-13T07:06:36;94508.63;;;0.32;92.18
6198;BME280;3132;42.622;23.328;2023-02-13T07:09:03;94563.16;;;0.87;91.25
6198;BME280;3132;42.622;23.328;2023-02-13T07:11:29;94549.41;;;0.58;90.64
6198;BME280;3132;42.622;23.328;2023-02-13T07:13:54;94551.75;;;0.90;91.23
6198;BME280;3132;42.622;23.328;2023-02-13T07:16:20;94535.59;;;0.81;90.38
6198;BME280;3132;42.622;23.328;2023-02-13T07:18:45;94546.66;;;0.59;90.38
6198;BME280;3132;42.622;23.328;2023-02-13T07:21:11;94560.09;;;0.69;90.71
6198;BME280;3132;42.622;23.328;2023-02-13T07:23:36;94551.44;;;0.40;90.72
6198;BME280;3132;42.622;23.328;2023-02-13T07:26:02;94576.09;;;1.02;88.69
6198;BME280;3132;42.622;23.328;2023-02-13T07:28:28;94569.66;;;0.61;89.54
6198;BME280;3132;42.622;23.328;2023-02-13T07:30:53;94548.00;;;0.25;90.47
6198;BME280;3132;42.622;23.328;2023-02-13T07:33:19;94558.19;;;0.41;93.06
6198;BME280;3132;42.622;23.328;2023-02-13T07:35:46;94567.16;;;0.67;93.88
6198;BME280;3132;42.622;23.328;2023-02-13T07:38:12;94573.03;;;0.53;90.54
6198;BME280;3132;42.622;23.328;2023-02-13T07:40:37;94554.50;;;0.66;90.11
6198;BME280;3132;42.622;23.328;2023-02-13T07:43:02;94573.94;;;0.68;91.11
6198;BME280;3132;42.622;23.328;2023-02-13T07:45:28;94572.47;;;0.66;88.89
6198;BME280;3132;42.622;23.328;2023-02-13T07:47:54;94572.09;;;0.77;89.74
6198;BME280;3132;42.622;23.328;2023-02-13T07:50:20;94570.59;;;0.60;89.84
6198;BME280;3132;42.622;23.328;2023-02-13T07:52:56;94572.50;;;0.88;89.71
6198;BME280;3132;42.622;23.328;2023-02-13T07:55:22;94566.66;;;0.94;90.19
6198;BME280;3132;42.622;23.328;2023-02-13T07:57:48;94557.63;;;0.98;89.56
6198;BME280;3132;42.622;23.328;2023-02-13T08:00:14;94571.19;;;1.29;87.73
6198;BME280;3132;42.622;23.328;2023-02-13T08:02:40;94570.25;;;1.30;86.05
6198;BME280;3132;42.622;23.328;2023-02-13T08:05:06;94570.94;;;1.39;87.68
6198;BME280;3132;42.622;23.328;2023-02-13T08:07:31;94552.84;;;0.95;86.78
6198;BME280;3132;42.622;23.328;2023-02-13T08:09:57;94563.47;;;0.92;88.18
6198;BME280;3132;42.622;23.328;2023-02-13T08:12:40;94564.53;;;1.20;86.84
6198;BME280;3132;42.622;23.328;2023-02-13T08:15:08;94571.13;;;1.23;86.56
6198;BME280;3132;42.622;23.328;2023-02-13T08:17:33;94555.91;;;1.13;85.92
6198;BME280;3132;42.622;23.328;2023-02-13T08:19:59;94559.56;;;1.19;85.82
6198;BME280;3132;42.622;23.328;2023-02-13T08:22:24;94572.78;;;1.67;85.18
6198;BME280;3132;42.622;23.328;2023-02-13T08:24:50;94560.97;;;1.58;85.75
6198;BME280;3132;42.622;23.328;2023-02-13T08:27:15;94539.47;;;1.37;85.69
6198;BME280;3132;42.622;23.328;2023-02-13T08:29:40;94564.66;;;1.41;85.31
6198;BME280;3132;42.622;23.328;2023-02-13T08:32:06;94546.66;;;1.41;85.49
6198;BME280;3132;42.622;23.328;2023-02-13T08:34:32;94558.56;;;1.72;83.61
6198;BME280;3132;42.622;23.328;2023-02-13T08:36:57;94571.00;;;1.68;83.92
6198;BME280;3132;42.622;23.328;2023-02-13T08:39:22;94571.72;;;1.77;83.94
6198;BME280;3132;42.622;23.328;2023-02-13T08:41:48;94572.13;;;1.51;82.42
6198;BME280;3132;42.622;23.328;2023-02-13T08:44:13;94562.00;;;1.49;83.16
6198;BME280;3132;42.622;23.328;2023-02-13T08:46:39;94566.63;;;1.68;83.13
6198;BME280;3132;42.622;23.328;2023-02-13T08:49:04;94555.88;;;1.65;83.14
6198;BME280;3132;42.622;23.328;2023-02-13T08:51:29;94565.31;;;1.73;83.23
6198;BME280;3132;42.622;23.328;2023-02-13T08:53:55;94562.03;;;1.64;82.83
6198;BME280;3132;42.622;23.328;2023-02-13T08:56:20;94550.31;;;1.61;82.44
6198;BME280;3132;42.622;23.328;2023-02-13T08:58:49;94582.13;;;1.98;82.77
6198;BME280;3132;42.622;23.328;2023-02-13T09:01:14;94567.34;;;1.92;81.85
6198;BME280;3132;42.622;23.328;2023-02-13T09:03:40;94587.16;;;2.20;81.37
6198;BME280;3132;42.622;23.328;2023-02-13T09:06:06;94576.50;;;2.59;78.87
6198;BME280;3132;42.622;23.328;2023-02-13T09:08:33;94577.19;;;2.67;78.11
6198;BME280;3132;42.622;23.328;2023-02-13T09:11:02;94579.00;;;2.52;79.32
6198;BME280;3132;42.622;23.328;2023-02-13T09:13:29;94577.97;;;2.68;78.12
6198;BME280;3132;42.622;23.328;2023-02-13T09:15:58;94583.28;;;3.02;76.42
6198;BME280;3132;42.622;23.328;2023-02-13T09:18:24;94582.66;;;2.58;78.85
6198;BME280;3132;42.622;23.328;2023-02-13T09:20:59;94568.03;;;2.65;79.05
6198;BME280;3132;42.622;23.328;2023-02-13T09:23:25;94580.56;;;2.68;78.71
6198;BME280;3132;42.622;23.328;2023-02-13T09:25:50;94566.25;;;2.65;77.86
6198;BME280;3132;42.622;23.328;2023-02-13T09:28:15;94562.66;;;2.10;80.18
6198;BME280;3132;42.622;23.328;2023-02-13T09:30:41;94565.69;;;2.84;77.63
6198;BME280;3132;42.622;23.328;2023-02-13T09:33:09;94557.97;;;2.49;77.39
6198;BME280;3132;42.622;23.328;2023-02-13T09:35:36;94557.06;;;2.42;78.33
6198;BME280;3132;42.622;23.328;2023-02-13T09:38:02;94559.72;;;3.05;77.08
6198;BME280;3132;42.622;23.328;2023-02-13T09:40:36;94559.63;;;2.56;79.31
6198;BME280;3132;42.622;23.328;2023-02-13T09:43:27;94543.97;;;2.58;78.24
6198;BME280;3132;42.622;23.328;2023-02-13T09:45:59;94556.50;;;2.82;78.57
6198;BME280;3132;42.622;23.328;2023-02-13T09:48:32;94553.56;;;2.64;78.03
6198;BME280;3132;42.622;23.328;2023-02-13T09:50:59;94532.88;;;2.22;79.62
6198;BME280;3132;42.622;23.328;2023-02-13T09:53:26;94544.41;;;2.26;79.91
6198;BME280;3132;42.622;23.328;2023-02-13T09:56:10;94543.69;;;2.32;79.96
6198;BME280;3132;42.622;23.328;2023-02-13T09:58:43;94532.03;;;2.36;79.98
6198;BME280;3132;42.622;23.328;2023-02-13T10:01:25;94536.44;;;1.92;81.69
6198;BME280;3132;42.622;23.328;2023-02-13T10:06:45;94532.41;;;2.33;80.33
6198;BME280;3132;42.622;23.328;2023-02-13T10:09:27;94524.59;;;2.26;81.27
6198;BME280;3132;42.622;23.328;2023-02-13T10:12:16;94529.56;;;2.28;80.73
6198;BME280;3132;42.622;23.328;2023-02-13T10:17:41;94526.88;;;2.36;81.15
6198;BME280;3132;42.622;23.328;2023-02-13T10:20:35;94503.06;;;2.34;81.34
6198;BME280;3132;42.622;23.328;2023-02-13T10:23:23;94510.94;;;2.11;82.50
6198;BME280;3132;42.622;23.328;2023-02-13T10:25:56;94507.81;;;2.16;81.95
6198;BME280;3132;42.622;23.328;2023-02-13T10:28:33;94488.31;;;2.07;83.03
6198;BME280;3132;42.622;23.328;2023-02-13T10:31:09;94497.16;;;2.19;82.34
6198;BME280;3132;42.622;23.328;2023-02-13T10:33:46;94490.56;;;2.73;80.74
6198;BME280;3132;42.622;23.328;2023-02-13T10:36:46;94473.00;;;2.62;80.46
6198;BME280;3132;42.622;23.328;2023-02-13T10:39:24;94478.47;;;2.52;81.50
6198;BME280;3132;42.622;23.328;2023-02-13T10:44:53;94468.81;;;2.40;82.46
6198;BME280;3132;42.622;23.328;2023-02-13T10:50:29;94475.78;;;2.81;79.38
6198;BME280;3132;42.622;23.328;2023-02-13T11:01:08;94469.88;;;2.66;81.26
6198;BME280;3132;42.622;23.328;2023-02-13T11:03:39;94456.19;;;2.45;84.74
6198;BME280;3132;42.622;23.328;2023-02-13T11:06:07;94461.25;;;2.74;80.79
6198;BME280;3132;42.622;23.328;2023-02-13T11:10:59;94461.06;;;3.30;78.72
6198;BME280;3132;42.622;23.328;2023-02-13T11:13:26;94469.44;;;3.11;79.02
6198;BME280;3132;42.622;23.328;2023-02-13T11:15:59;94461.00;;;3.24;78.42
6198;BME280;3132;42.622;23.328;2023-02-13T11:18:28;94444.34;;;2.99;80.01
6198;BME280;3132;42.622;23.328;2023-02-13T11:26:06;94379.56;;;2.53;79.87
6198;BME280;3132;42.622;23.328;2023-02-13T11:28:36;94425.19;;;3.42;78.23
6198;BME280;3132;42.622;23.328;2023-02-13T11:33:46;94415.63;;;3.36;77.92
6198;BME280;3132;42.622;23.328;2023-02-13T11:36:22;94416.16;;;3.59;76.69
6198;BME280;3132;42.622;23.328;2023-02-13T11:39:06;94412.53;;;3.54;76.62
6198;BME280;3132;42.622;23.328;2023-02-13T11:41:43;94393.69;;;3.53;75.53
6198;BME280;3132;42.622;23.328;2023-02-13T11:46:52;94409.25;;;3.73;76.12
6198;BME280;3132;42.622;23.328;2023-02-13T11:49:29;94375.25;;;3.69;74.11
6198;BME280;3132;42.622;23.328;2023-02-13T11:52:00;94391.69;;;4.15;73.01
6198;BME280;3132;42.622;23.328;2023-02-13T11:54:41;94379.53;;;3.96;71.97
6198;BME280;3132;42.622;23.328;2023-02-13T11:57:45;94379.47;;;3.83;74.07
6198;BME280;3132;42.622;23.328;2023-02-13T12:00:28;94377.91;;;3.89;73.79
6198;BME280;3132;42.622;23.328;2023-02-13T12:02:55;94378.88;;;3.88;72.60
6198;BME280;3132;42.622;23.328;2023-02-13T12:05:23;94369.41;;;4.01;73.23
6198;BME280;3132;42.622;23.328;2023-02-13T12:07:49;94360.59;;;3.89;74.38
6198;BME280;3132;42.622;23.328;2023-02-13T12:10:32;94356.31;;;4.09;71.58
6198;BME280;3132;42.622;23.328;2023-02-13T12:13:10;94361.44;;;4.03;71.51
6198;BME280;3132;42.622;23.328;2023-02-13T12:15:37;94363.84;;;4.17;70.35
6198;BME280;3132;42.622;23.328;2023-02-13T12:23:46;94364.31;;;4.40;69.69
6198;BME280;3132;42.622;23.328;2023-02-13T12:32:18;94360.31;;;4.38;69.85
6198;BME280;3132;42.622;23.328;2023-02-13T12:40:22;94334.06;;;4.28;68.94
6198;BME280;3132;42.622;23.328;2023-02-13T12:45:26;94326.03;;;3.90;70.17
6198;BME280;3132;42.622;23.328;2023-02-13T12:53:22;94332.47;;;4.33;68.92
6198;BME280;3132;42.622;23.328;2023-02-13T12:56:52;94322.91;;;4.34;68.40
6198;BME280;3132;42.622;23.328;2023-02-13T12:59:09;94320.94;;;4.29;67.67
6198;BME280;3132;42.622;23.328;2023-02-13T13:10:01;94321.50;;;4.77;65.70
6198;BME280;3132;42.622;23.328;2023-02-13T13:12:43;94320.53;;;4.65;65.95
6198;BME280;3132;42.622;23.328;2023-02-13T13:17:53;94314.50;;;4.97;64.72
6198;BME280;3132;42.622;23.328;2023-02-13T13:23:06;94312.91;;;5.03;64.03
6198;BME280;3132;42.622;23.328;2023-02-13T13:25:44;94300.94;;;4.95;64.52
6198;BME280;3132;42.622;23.328;2023-02-13T13:28:15;94293.19;;;4.95;64.18
6198;BME280;3132;42.622;23.328;2023-02-13T13:30:44;94300.94;;;5.02;64.96
6198;BME280;3132;42.622;23.328;2023-02-13T13:33:15;94302.75;;;5.01;64.15
6198;BME280;3132;42.622;23.328;2023-02-13T13:35:44;94296.50;;;5.22;62.76
6198;BME280;3132;42.622;23.328;2023-02-13T13:38:16;94300.72;;;5.16;63.53
6198;BME280;3132;42.622;23.328;2023-02-13T13:43:27;94295.16;;;5.13;63.49
6198;BME280;3132;42.622;23.328;2023-02-13T13:46:16;94294.16;;;5.14;64.04
6198;BME280;3132;42.622;23.328;2023-02-13T13:49:07;94302.28;;;5.17;63.65
6198;BME280;3132;42.622;23.328;2023-02-13T13:51:37;94288.50;;;5.30;62.71
6198;BME280;3132;42.622;23.328;2023-02-13T14:07:33;94283.28;;;4.85;63.61
6198;BME280;3132;42.622;23.328;2023-02-13T14:09:58;94289.84;;;4.75;64.19
6198;BME280;3132;42.622;23.328;2023-02-13T14:14:51;94283.91;;;4.68;64.59
6198;BME280;3132;42.622;23.328;2023-02-13T14:22:47;94267.19;;;4.70;64.70
6198;BME280;3132;42.622;23.328;2023-02-13T14:25:24;94275.56;;;4.53;66.25
6198;BME280;3132;42.622;23.328;2023-02-13T14:27:58;94248.34;;;4.24;66.98
6198;BME280;3132;42.622;23.328;2023-02-13T14:30:28;94249.72;;;4.33;67.49
6198;BME280;3132;42.622;23.328;2023-02-13T14:32:54;94272.78;;;4.28;67.46
6198;BME280;3132;42.622;23.328;2023-02-13T14:35:25;94266.44;;;4.11;68.72
6198;BME280;3132;42.622;23.328;2023-02-13T14:37:56;94262.69;;;4.14;69.63
6198;BME280;3132;42.622;23.328;2023-02-13T14:40:55;94245.56;;;3.93;69.19
6198;BME280;3132;42.622;23.328;2023-02-13T14:43:34;94259.28;;;3.87;69.82
6198;BME280;3132;42.622;23.328;2023-02-13T14:48:50;94253.06;;;3.75;70.12
6198;BME280;3132;42.622;23.328;2023-02-13T14:51:25;94230.22;;;3.72;70.34
6198;BME280;3132;42.622;23.328;2023-02-13T14:56:46;94255.88;;;3.67;70.75
6198;BME280;3132;42.622;23.328;2023-02-13T14:59:17;94262.78;;;3.60;71.48
6198;BME280;3132;42.622;23.328;2023-02-13T15:01:59;94247.47;;;3.39;71.75
6198;BME280;3132;42.622;23.328;2023-02-13T15:04:40;94239.50;;;3.34;72.68
6198;BME280;3132;42.622;23.328;2023-02-13T15:07:13;94250.84;;;3.33;72.85
6198;BME280;3132;42.622;23.328;2023-02-13T15:09:45;94255.00;;;3.34;72.48
6198;BME280;3132;42.622;23.328;2023-02-13T15:12:31;94253.78;;;3.30;73.48
6198;BME280;3132;42.622;23.328;2023-02-13T15:14:58;94259.72;;;3.17;73.91
6198;BME280;3132;42.622;23.328;2023-02-13T15:17:28;94211.34;;;2.85;73.79
6198;BME280;3132;42.622;23.328;2023-02-13T15:20:22;94250.94;;;3.12;74.00
6198;BME280;3132;42.622;23.328;2023-02-13T15:22:49;94255.06;;;3.00;74.24
6198;BME280;3132;42.622;23.328;2023-02-13T15:25:44;94249.53;;;3.03;74.39
6198;BME280;3132;42.622;23.328;2023-02-13T15:28:18;94250.03;;;2.85;73.82
6198;BME280;3132;42.622;23.328;2023-02-13T15:31:01;94187.34;;;2.38;78.10
6198;BME280;3132;42.622;23.328;2023-02-13T15:33:31;94260.53;;;2.84;75.76
6198;BME280;3132;42.622;23.328;2023-02-13T15:36:03;94269.19;;;2.70;75.84
6198;BME280;3132;42.622;23.328;2023-02-13T15:38:34;94269.75;;;2.65;76.71
6198;BME280;3132;42.622;23.328;2023-02-13T15:43:32;94263.97;;;2.57;76.18
6198;BME280;3132;42.622;23.328;2023-02-13T15:46:25;94259.72;;;2.43;76.35
6198;BME280;3132;42.622;23.328;2023-02-13T15:48:51;94274.19;;;2.44;75.67
6198;BME280;3132;42.622;23.328;2023-02-13T15:51:21;94277.00;;;2.49;76.68
6198;BME280;3132;42.622;23.328;2023-02-13T15:53:59;94276.28;;;2.34;76.85
6198;BME280;3132;42.622;23.328;2023-02-13T15:56:25;94266.84;;;2.13;77.43
6198;BME280;3132;42.622;23.328;2023-02-13T15:58:52;94248.53;;;2.02;77.49